Aktualne dane pomiarowe

Uwaga, wersja testowa! Automatyczne pobieranie danych za pomocą narzędzi lub skryptów to umożliwiających jest zabronione.

Dane meteo z obszaru Polski uzyskane na podstawie depesz SYNOP pobieranych co godzinę z NWS. Najedź myszką na symbol przedstawiony w tabeli, aby uzyskać informacje co do jego znaczenia. Prosimy pamiętać, że to testowa wersja strony, która jeszcze nie jest ukończona. Stworzono również jest krótki FAQ dotyczący korzystania z tej podstrony Anomalie temperatury w chwili obecnej odniesione są do okresu referencyjnego 1951-2016. Okres ten będzie później zmieniony na 1981-2010. Kliknij ikonę aby pobrać plik CSV. Kliknij ikonę aby wygenerować mapę synoptyczną dla danego terminu.

Wybierz Datę:    

        

Sulejów (12469)

Dane terminowe dla wybranej stacji. Kliknij datę, aby otrzymać dane z tego terminu dla wszystkich stacji.

TemperaturaZachmurzenieWiatrCiśnienieOpadyPogoda
 Data t td wb tx tn tg rh  Nt Nl Cl Cm Ch ws wd g1 g2 wx mslp ppp ch 24h 12h t ww ww w1 w2  
2019-05-19 23:00:00 13.4 12.7 12.9--- 9615.0wx-wx2wx--21006.4 984.0 -0.7---------
2019-05-19 22:00:00 14.1 12.9 13.2--- 9218.0wx-wx2wx--21006.5 984.1 -0.8---------
2019-05-19 21:00:00 14.8 13.6 13.9--- 9320.0wxwxwx2wx--21006.9 984.6 0.0---wx-w1w2--
2019-05-19 20:00:00 16.7 13.3 14.4--- 8020.0wxwxwx1wx--11006.9 984.7 0.1---wx-w1--
2019-05-19 19:00:00 16.7 12.5 13.9--- 7645.0wxwxwx2wx--21007.1 984.9 0.5---wx---
2019-05-19 18:00:00 17.0 11.8 13.7 24.1 16.7- 7145.0wxwxwxwxwx2wx-1321006.8 984.6 0.0--12wx-w1w2--
2019-05-19 17:00:00 18.2 12.1 14.3--- 6835.0wxwxwxwxwx2wx--21006.7 984.6 0.5---wx-w1--
2019-05-19 16:00:00 20.7 13.3 16.0--- 6320.0wxwxwxwx5wx131351006.3 984.4 0.1---wx-w1w2--
2019-05-19 15:00:00 22.4 13.9 17.0--- 5930.0wxwxwx5wx101051006.4 984.6 0.0---wx---
2019-05-19 14:00:00 22.2 14.7 17.3--- 6330.0wxwxwx4wx--41005.9 984.1 -0.9---------
2019-05-19 13:00:00 23.6 14.2 17.6--- 5630.0wxwxwx3wx8831006.0 984.3 -1.0---------
2019-05-19 12:00:00 22.0 15.3 17.6--- 6630.0wxwxwx4wx--41006.4 984.6 -0.9- 0.06------
2019-05-19 11:00:00 22.9 14.4 17.4--- 5930.0wxwxwx3wx--31006.7 985.0 -0.6---------
2019-05-19 10:00:00 21.5 14.3 16.8--- 6430.0wxwxwxwx2wx--21007.1 985.3 -0.3---------
2019-05-19 09:00:00 20.3 15.2 16.9--- 7325.0wxwxwxwx1wx--11007.4 985.5 -0.5---------
2019-05-19 08:00:00 19.4 14.5 16.1--- 7325.0wxwxwxwx2wx--21007.6 985.6 -0.4---------
2019-05-19 07:00:00 18.0 14.4 15.6--- 8025.0wxwxwxwx2wx--21007.7 985.6 -0.5---------
2019-05-19 06:00:00 16.8 14.0 14.9 21.0 12.5 12 8418.0wxwxwxwxwx3wx--31008.2 986.0 -0.1--12wx-w1- 11.1
2019-05-19 05:00:00 16.3 14.0 14.7--- 8615.0wxwxwxwxwx3wx--31008.3 986.0 -0.1---------
2019-05-19 04:00:00 14.7 13.5 13.8--- 9312.0wxwxwxwxwx1wx--11008.5 986.1 0.0---------
2019-05-19 03:00:00 14.2 13.0 13.3--- 938.0wxwxwxwxwx2wx--21008.5 986.1 0.0---wx-w1--
2019-05-19 02:00:00 13.2 12.5 12.7--- 966.0wxwxwxwx1wx--11008.6 986.1 -0.2---wx---
2019-05-19 01:00:00 12.9 12.0 12.2--- 948.0wxwxwxwx1wx--11008.6 986.1 -0.2---wx---
2019-05-19 00:00:00 13.5 12.1 12.5--- 918.0wxwxwxwxwx1wx--11008.6 986.1 -0.4- 0.06wx---
2019-05-18 23:00:00 14.0 12.5 12.9--- 9110.0wx-wxwx1wx--11008.7 986.3 -0.3---------
2019-05-18 22:00:00 14.3 12.1 12.8--- 8712.0wx-wxwx2wx---1008.7 986.3 -0.5---------
2019-05-18 21:00:00 14.9 12.7 13.4--- 8712.0wx-wxwx1wx---1008.9 986.5 -0.3---------
2019-05-18 20:00:00 16.0 12.8 13.8--- 8112.0wx-wxwx1wx--11008.9 986.6 -0.2---------
2019-05-18 19:00:00 18.9 12.8 15.0--- 6820.0wxwxwxwxwx1wx--11008.9 986.8 0.1---------
2019-05-18 18:00:00 21.0 12.3 15.6 23.9 15.6- 5840.0wxwxwxwxwx1wx--11008.7 986.8 -0.1- 0.012------
2019-05-18 17:00:00 22.1 12.3 16.0--- 5440.0wxwxwxwxwx1wx--11008.6 986.8 -0.3---------
2019-05-18 16:00:00 23.4 10.7 15.8--- 4535.0wxwxwxwxwx1wx--11008.4 986.7 -0.7---------
2019-05-18 15:00:00 23.4 10.4 15.7--- 4435.0wxwxwxwx3wx--31008.6 986.9 -0.6---------
2019-05-18 14:00:00 23.2 11.2 16.0--- 4735.0wxwxwx2wx--21008.9 987.1 -0.7---------
2019-05-18 13:00:00 22.3 11.3 15.6--- 5035.0wxwxwx2wx--21009.2 987.4 -0.8---------
2019-05-18 12:00:00 23.7 10.3 15.8--- 4330.0wxwxwxwx2wx--21009.2 987.5 -0.8- 0.06------
2019-05-18 11:00:00 22.6 11.9 16.1--- 5135.0wxwxwxwx3wx--31009.6 987.8 -1.0---------
2019-05-18 10:00:00 21.7 11.9 15.7--- 5430.0wxwxwxwx2wx--21010.1 988.2 -0.7---------
2019-05-18 09:00:00 20.4 13.5 16.0--- 6530.0wxwxwxwx1wx--11010.3 988.3 -0.3---------
2019-05-18 08:00:00 19.0 13.7 15.5--- 7130.0wxwxwxwxwx1wx--11010.9 988.8 -0.1---------
2019-05-18 07:00:00 17.0 13.0 14.3--- 7718.0wxwxwxwxwx1wx--11011.2 988.9 -0.4---------
2019-05-18 06:00:00 15.6 13.0 13.8 16.9 11.2 10 8514.0wxwxwxwx2wx--21011.0 988.6 -0.4 1.9 0.012----- 4.3
2019-05-18 05:00:00 13.6 13.0 13.1--- 968.0wxwxwxwx1wx--11011.4 988.9 -0.1---wx---
2019-05-18 04:00:00 11.8 11.2 11.3--- 965.0wxwxwxwx0----1012.0 989.3 -0.4---wx---
2019-05-18 03:00:00 11.4 10.8 10.9--- 962.8wxwxwxwx2wx--21011.7 989.0 -0.6---wx---
2019-05-18 02:00:00 12.1 11.7 11.8--- 972.0wx-wx1wx--11011.7 989.0 -0.6---wx---
2019-05-18 01:00:00 12.2 11.6 11.7--- 963.2wx-wx1wx---1012.4 989.7 -0.3---wx---
2019-05-18 00:00:00 12.5 11.8 12.0--- 964.0wx-wx2wx--21012.2 989.6 -0.3- 0.06wx---
2.7 ms

 

Print Friendly, PDF & Email